Time;durP1;ratioP1;P1;durP2;ratioP2;P2;SDS_P1;SDS_P2;PMS_P1;PMS_P2;Temp;Humidity;BMP_temperature;BMP_pressure;BME280_temperature;BME280_humidity;BME280_pressure;Samples;Min_cycle;Max_cycle;Signal;HPM_P1;HPM_P2
2023/05/15 00:01:14;;;;;;;;;;;;;;;15.29;80.73;100658.63;4928485;28;19929;-80
2023/05/15 00:03:44;;;;;;;;;;;;;;;15.03;80.86;100610.66;4943692;28;20450;-82
2023/05/15 00:06:14;;;;;;;;;;;;;;;14.99;81.59;100612.78;4927659;28;19988;-81
2023/05/15 00:08:43;;;;;;;;;;;;;;;15.27;81.40;100663.31;4945375;28;20016;-82
2023/05/15 00:11:09;;;;;;;;;;;;;;;15.26;81.32;100656.28;4930328;28;19921;-82
2023/05/15 00:13:37;;;;;;;;;;;;;;;15.32;81.34;100658.31;4959595;28;19984;-81
2023/05/15 00:16:08;;;;;;;;;;;;;;;15.39;81.01;100656.66;4960898;28;20490;-83
2023/05/15 00:18:35;;;;;;;;;;;;;;;15.45;79.32;100658.63;4967183;28;20316;-81
2023/05/15 00:21:02;;;;;;;;;;;;;;;15.39;80.95;100651.28;4946290;28;20129;-82
2023/05/15 00:23:28;;;;;;;;;;;;;;;15.35;82.14;100661.47;4968862;28;19922;-84
2023/05/15 00:25:55;;;;;;;;;;;;;;;15.30;82.76;100647.75;4984216;28;19926;-82
2023/05/15 00:28:22;;;;;;;;;;;;;;;15.30;82.85;100650.44;4978197;28;20159;-81
2023/05/15 00:30:51;;;;;;;;;;;;;;;15.26;82.89;100642.91;4933432;28;19926;-82
2023/05/15 00:33:17;;;;;;;;;;;;;;;15.24;83.57;100642.25;4937560;28;19925;-81
2023/05/15 00:35:45;;;;;;;;;;;;;;;15.22;83.73;100639.75;4937771;28;20132;-82
2023/05/15 00:38:11;;;;;;;;;;;;;;;15.20;82.98;100647.09;4948639;28;20207;-82
2023/05/15 00:40:38;;;;;;;;;;;;;;;15.16;82.03;100645.75;4947811;28;19929;-81
2023/05/15 00:43:05;;;;;;;;;;;;;;;15.16;81.74;100638.56;4957895;28;19991;-82
2023/05/15 00:45:32;;;;;;;;;;;;;;;15.15;80.46;100644.09;4973209;28;20176;-83
2023/05/15 00:48:00;;;;;;;;;;;;;;;15.13;80.01;100633.53;4958795;28;20235;-81
2023/05/15 00:50:26;;;;;;;;;;;;;;;15.20;82.41;100636.41;4950010;28;19933;-82
2023/05/15 00:52:54;;;;;;;;;;;;;;;15.17;82.15;100642.91;4945514;28;20000;-82
2023/05/15 00:55:21;;;;;;;;;;;;;;;15.20;81.81;100632.91;4942074;28;19922;-82
2023/05/15 00:57:48;;;;;;;;;;;;;;;15.21;82.09;100631.88;4957687;28;20403;-82
2023/05/15 01:00:17;;;;;;;;;;;;;;;15.22;81.97;100628.19;4933312;28;19988;-81
2023/05/15 01:02:44;;;;;;;;;;;;;;;15.29;81.27;100637.22;4942093;28;19922;-81
2023/05/15 01:05:12;;;;;;;;;;;;;;;15.35;81.76;100632.06;4925422;28;20195;-82
2023/05/15 01:07:47;;;;;;;;;;;;;;;15.22;82.42;100614.81;4922240;28;19926;-82
2023/05/15 01:10:15;;;;;;;;;;;;;;;15.28;83.28;100633.72;4933226;28;19922;-81
2023/05/15 01:12:43;;;;;;;;;;;;;;;15.24;82.45;100632.38;4932162;28;19921;-80
2023/05/15 01:15:09;;;;;;;;;;;;;;;15.27;83.19;100632.06;4984308;28;20229;-82
2023/05/15 01:17:44;;;;;;;;;;;;;;;15.34;82.05;100626.84;4961229;28;19972;-82
2023/05/15 01:20:12;;;;;;;;;;;;;;;15.30;81.85;100621.03;4949966;28;20541;-80
2023/05/15 01:22:56;;;;;;;;;;;;;;;15.30;82.78;100623.69;4981159;28;19929;-81
2023/05/15 01:25:32;;;;;;;;;;;;;;;15.28;83.64;100623.03;4975500;28;19922;-81
2023/05/15 01:28:08;;;;;;;;;;;;;;;15.26;81.91;100618.84;4939214;28;20363;-81
2023/05/15 01:30:39;;;;;;;;;;;;;;;15.25;81.92;100615.34;4942293;28;20009;-80
2023/05/15 01:33:12;;;;;;;;;;;;;;;14.93;83.17;100566.19;4960174;28;19925;-81
2023/05/15 01:35:42;;;;;;;;;;;;;;;15.23;83.64;100609.31;4944482;28;19922;-80
2023/05/15 01:38:09;;;;;;;;;;;;;;;15.21;84.25;100610.50;4949962;28;20130;-82
2023/05/15 01:40:36;;;;;;;;;;;;;;;14.85;84.09;100547.44;4917243;28;19926;-81
2023/05/15 01:43:07;;;;;;;;;;;;;;;15.16;83.84;100603.78;4976129;28;19921;-81
2023/05/15 01:45:35;;;;;;;;;;;;;;;15.10;83.38;100603.63;4977513;28;19922;-81
2023/05/15 01:48:04;;;;;;;;;;;;;;;15.13;82.71;100601.47;4961014;28;20284;-79
2023/05/15 01:50:34;;;;;;;;;;;;;;;15.11;82.94;100611.47;4906402;28;20165;-81
2023/05/15 01:53:02;;;;;;;;;;;;;;;15.04;83.52;100605.13;4918121;29;20005;-81
2023/05/15 01:55:37;;;;;;;;;;;;;;;15.00;84.34;100601.13;4919494;29;19923;-80
2023/05/15 01:58:04;;;;;;;;;;;;;;;14.95;83.72;100606.09;4920604;28;20368;-81
2023/05/15 02:00:31;;;;;;;;;;;;;;;14.92;83.83;100603.75;4957376;28;19922;-82
2023/05/15 02:02:58;;;;;;;;;;;;;;;14.86;83.68;100597.25;4971877;28;19976;-81
2023/05/15 02:05:26;;;;;;;;;;;;;;;14.85;84.30;100600.06;4924683;28;20013;-82
2023/05/15 02:08:01;;;;;;;;;;;;;;;14.47;84.74;100519.50;4946644;28;19922;-82
2023/05/15 02:10:29;;;;;;;;;;;;;;;14.94;84.46;100593.75;4932247;28;19932;-80
2023/05/15 02:13:00;;;;;;;;;;;;;;;14.36;84.72;100509.13;4920075;28;19925;-83
2023/05/15 02:15:31;;;;;;;;;;;;;;;14.56;85.77;100547.91;4960490;28;20376;-82
2023/05/15 02:18:02;;;;;;;;;;;;;;;14.85;85.18;100594.72;4942286;28;20205;-80
2023/05/15 02:20:28;;;;;;;;;;;;;;;14.86;84.67;100593.75;4942303;28;19929;-82
2023/05/15 02:22:55;;;;;;;;;;;;;;;14.88;85.09;100586.38;4959354;28;19921;-82
2023/05/15 02:25:32;;;;;;;;;;;;;;;14.91;84.42;100583.41;4949015;28;20409;-82
2023/05/15 02:28:03;;;;;;;;;;;;;;;14.98;84.04;100579.06;4953399;28;19976;-81
2023/05/15 02:30:37;;;;;;;;;;;;;;;15.02;83.75;100579.56;4945538;28;20148;-81
2023/05/15 02:33:06;;;;;;;;;;;;;;;15.06;84.73;100580.91;4947516;28;20408;-82
2023/05/15 02:35:52;;;;;;;;;;;;;;;15.03;85.46;100582.06;4950548;28;20164;-81
2023/05/15 02:38:21;;;;;;;;;;;;;;;15.02;84.63;100580.38;4943736;28;20419;-80
2023/05/15 02:40:49;;;;;;;;;;;;;;;15.04;84.80;100578.38;4928363;28;19930;-81
2023/05/15 02:43:17;;;;;;;;;;;;;;;15.02;85.35;100579.56;4961853;28;20540;-81
2023/05/15 02:45:45;;;;;;;;;;;;;;;15.02;85.57;100577.72;4974438;28;20324;-81
2023/05/15 02:48:11;;;;;;;;;;;;;;;15.07;84.19;100569.19;4973850;28;19972;-81
2023/05/15 02:50:38;;;;;;;;;;;;;;;15.04;84.62;100573.03;4951182;28;19988;-81
2023/05/15 02:53:13;;;;;;;;;;;;;;;15.09;85.40;100575.22;4931483;28;19926;-83
2023/05/15 02:55:41;;;;;;;;;;;;;;;14.72;84.04;100520.41;4926795;28;20001;-81
2023/05/15 02:58:07;;;;;;;;;;;;;;;15.03;84.94;100570.53;4933089;28;20360;-82
2023/05/15 03:00:34;;;;;;;;;;;;;;;15.06;84.33;100579.06;4938634;28;20110;-82
2023/05/15 03:03:04;;;;;;;;;;;;;;;15.08;83.64;100578.91;4957715;28;19922;-82
2023/05/15 03:05:35;;;;;;;;;;;;;;;15.15;83.56;100570.03;4955171;28;19926;-80
2023/05/15 03:08:10;;;;;;;;;;;;;;;15.08;82.80;100569.03;4920060;28;19926;-83
2023/05/15 03:10:38;;;;;;;;;;;;;;;14.97;82.47;100572.03;4962571;28;19926;-83
2023/05/15 03:13:06;;;;;;;;;;;;;;;14.43;82.94;100489.59;4931390;28;20105;-82
2023/05/15 03:15:32;;;;;;;;;;;;;;;14.93;83.55;100586.75;4972937;28;19922;-81
2023/05/15 03:17:59;;;;;;;;;;;;;;;14.92;84.59;100579.72;4973246;28;20256;-80
2023/05/15 03:20:26;;;;;;;;;;;;;;;14.91;85.02;100575.38;4956773;28;19921;-79
2023/05/15 03:22:52;;;;;;;;;;;;;;;14.73;85.28;100552.31;4960587;28;19976;-78
2023/05/15 03:25:21;;;;;;;;;;;;;;;14.65;85.07;100532.75;4947714;28;19960;-80
2023/05/15 03:27:50;;;;;;;;;;;;;;;14.49;85.31;100504.13;4977476;28;19925;-82
2023/05/15 03:30:16;;;;;;;;;;;;;;;14.90;85.08;100565.66;4932940;28;20247;-82
2023/05/15 03:32:43;;;;;;;;;;;;;;;14.89;84.68;100574.69;4944181;28;20247;-81
2023/05/15 03:35:09;;;;;;;;;;;;;;;14.85;85.13;100574.19;4931040;28;19922;-79
2023/05/15 03:37:43;;;;;;;;;;;;;;;14.83;84.16;100575.34;4928923;28;20167;-81
2023/05/15 03:40:09;;;;;;;;;;;;;;;14.85;84.59;100571.50;4928544;28;20686;-83
2023/05/15 03:42:36;;;;;;;;;;;;;;;14.89;84.75;100564.00;4922043;28;19929;-81
2023/05/15 03:45:03;;;;;;;;;;;;;;;14.92;84.14;100559.16;4972905;28;19922;-80
2023/05/15 03:47:38;;;;;;;;;;;;;;;14.96;84.03;100563.19;4972521;28;19926;-82
2023/05/15 03:50:08;;;;;;;;;;;;;;;15.00;83.48;100561.03;4931481;28;19930;-82
2023/05/15 03:52:36;;;;;;;;;;;;;;;15.17;83.06;100552.00;4939684;28;19922;-80
2023/05/15 03:55:05;;;;;;;;;;;;;;;15.09;82.75;100554.66;4939464;28;19930;-82
2023/05/15 03:57:34;;;;;;;;;;;;;;;15.10;83.53;100556.34;4924206;28;20307;-81
2023/05/15 04:00:08;;;;;;;;;;;;;;;15.05;83.32;100555.16;4925757;28;19932;-80
2023/05/15 04:02:36;;;;;;;;;;;;;;;15.02;83.11;100547.47;4938580;28;19921;-79
2023/05/15 04:05:07;;;;;;;;;;;;;;;14.95;84.25;100552.63;4935844;28;19958;-81
2023/05/15 04:07:38;;;;;;;;;;;;;;;14.90;84.59;100549.63;4913102;28;20339;-81
2023/05/15 04:10:05;;;;;;;;;;;;;;;14.89;84.41;100553.31;4907667;28;20012;-80
2023/05/15 04:12:36;;;;;;;;;;;;;;;14.58;84.35;100505.84;4926447;28;20019;-83
2023/05/15 04:15:18;;;;;;;;;;;;;;;14.87;83.80;100550.81;4961738;28;19925;-81
2023/05/15 04:17:46;;;;;;;;;;;;;;;14.83;83.43;100552.16;4951532;28;20364;-82
2023/05/15 04:20:16;;;;;;;;;;;;;;;14.82;83.15;100552.31;4932375;28;19933;-82
2023/05/15 04:22:46;;;;;;;;;;;;;;;14.90;82.67;100549.63;4954117;28;19921;-82
2023/05/15 04:25:16;;;;;;;;;;;;;;;14.92;83.46;100552.97;4970739;28;19930;-83
2023/05/15 04:27:43;;;;;;;;;;;;;;;14.94;83.02;100551.81;4958252;28;20020;-82
2023/05/15 04:30:11;;;;;;;;;;;;;;;15.09;82.07;100545.81;4952300;28;20008;-82
2023/05/15 04:32:38;;;;;;;;;;;;;;;15.14;79.68;100541.63;4946727;28;20304;-82
2023/05/15 04:35:09;;;;;;;;;;;;;;;15.10;78.92;100545.66;4950561;28;20022;-81
2023/05/15 04:37:44;;;;;;;;;;;;;;;14.74;81.31;100497.03;4931770;28;20161;-82
2023/05/15 04:40:13;;;;;;;;;;;;;;;15.01;82.17;100545.81;4953619;28;20246;-80
2023/05/15 04:42:40;;;;;;;;;;;;;;;14.96;82.21;100546.31;4939956;28;20359;-80
2023/05/15 04:45:10;;;;;;;;;;;;;;;14.92;82.39;100548.47;4973843;28;20127;-81
2023/05/15 04:47:36;;;;;;;;;;;;;;;14.93;82.01;100538.63;4940029;28;19922;-82
2023/05/15 04:50:03;;;;;;;;;;;;;;;15.01;81.14;100541.28;4946609;28;20282;-83
2023/05/15 04:52:34;;;;;;;;;;;;;;;15.09;79.84;100540.47;4948841;28;20407;-81
2023/05/15 04:55:03;;;;;;;;;;;;;;;15.13;79.21;100541.81;4942720;28;19926;-82
2023/05/15 04:57:33;;;;;;;;;;;;;;;15.20;78.50;100547.31;4958228;28;20291;-82
2023/05/15 04:59:59;;;;;;;;;;;;;;;15.23;78.94;100557.69;4932281;28;20222;-80
2023/05/15 05:02:26;;;;;;;;;;;;;;;15.27;78.58;100562.53;4934944;28;19926;-82
2023/05/15 05:04:53;;;;;;;;;;;;;;;15.34;77.85;100568.00;4946804;28;20098;-81
2023/05/15 05:07:19;;;;;;;;;;;;;;;15.35;78.88;100577.72;4937172;28;20447;-82
2023/05/15 05:09:49;;;;;;;;;;;;;;;15.01;80.73;100527.94;4943802;28;20540;-81
2023/05/15 05:12:18;;;;;;;;;;;;;;;15.30;79.36;100580.06;4950162;28;19926;-80
2023/05/15 05:14:45;;;;;;;;;;;;;;;15.26;79.30;100581.41;4963107;28;19943;-81
2023/05/15 05:17:13;;;;;;;;;;;;;;;15.27;79.38;100577.75;4943125;28;20009;-82
2023/05/15 05:19:40;;;;;;;;;;;;;;;15.28;78.25;100579.41;4955164;28;19992;-82
2023/05/15 05:22:07;;;;;;;;;;;;;;;15.27;77.79;100578.56;4960314;28;19925;-81
2023/05/15 05:24:36;;;;;;;;;;;;;;;15.26;77.44;100576.06;4956092;28;20154;-83
2023/05/15 05:27:03;;;;;;;;;;;;;;;15.27;78.47;100575.06;4947850;28;19926;-81
2023/05/15 05:29:30;;;;;;;;;;;;;;;15.32;78.20;100575.41;4955231;28;19993;-82
2023/05/15 05:31:57;;;;;;;;;;;;;;;15.37;79.26;100573.06;4906764;28;19922;-80
2023/05/15 05:34:24;;;;;;;;;;;;;;;15.42;79.03;100569.88;4947181;28;20028;-83
2023/05/15 05:36:52;;;;;;;;;;;;;;;15.10;77.96;100505.53;4940806;28;19929;-81
2023/05/15 05:39:22;;;;;;;;;;;;;;;15.41;76.23;100555.63;4946344;28;19922;-81
2023/05/15 05:41:49;;;;;;;;;;;;;;;15.44;74.88;100549.13;4950348;28;19922;-82
2023/05/15 05:44:18;;;;;;;;;;;;;;;15.14;75.82;100500.69;4969603;28;19926;-82
2023/05/15 05:46:47;;;;;;;;;;;;;;;15.51;73.82;100548.28;4982746;28;19968;-78
2023/05/15 05:49:14;;;;;;;;;;;;;;;15.29;74.43;100506.16;4952657;28;19926;-83
2023/05/15 05:51:41;;;;;;;;;;;;;;;15.61;75.60;100550.78;4937180;28;20258;-83
2023/05/15 05:54:07;;;;;;;;;;;;;;;15.63;75.76;100554.09;4946879;28;20481;-81
2023/05/15 05:56:34;;;;;;;;;;;;;;;15.70;76.37;100562.31;4939032;28;20048;-83
2023/05/15 05:59:00;;;;;;;;;;;;;;;15.72;73.81;100552.28;4958279;28;19976;-84
2023/05/15 06:01:29;;;;;;;;;;;;;;;15.71;73.42;100553.31;4931793;28;19930;-81
2023/05/15 06:03:56;;;;;;;;;;;;;;;15.70;73.92;100557.78;4925516;28;19922;-83
2023/05/15 06:06:23;;;;;;;;;;;;;;;15.72;74.29;100560.31;4934286;28;20490;-83
2023/05/15 06:08:50;;;;;;;;;;;;;;;15.80;73.26;100562.94;4936889;28;19936;-82
2023/05/15 06:11:25;;;;;;;;;;;;;;;15.77;71.99;100563.31;4944827;28;20081;-82
2023/05/15 06:13:56;;;;;;;;;;;;;;;15.49;73.21;100523.53;4964366;28;19952;-82
2023/05/15 06:16:23;;;;;;;;;;;;;;;15.79;74.29;100566.66;4943127;28;20349;-82
2023/05/15 06:18:49;;;;;;;;;;;;;;;15.83;74.31;100568.00;4967684;28;19930;-81
2023/05/15 06:21:21;;;;;;;;;;;;;;;15.88;73.95;100567.47;4956041;28;19996;-82
2023/05/15 06:23:51;;;;;;;;;;;;;;;15.91;71.77;100567.94;4961212;28;20268;-83
2023/05/15 06:26:18;;;;;;;;;;;;;;;15.91;72.30;100567.94;4956861;28;20361;-82
2023/05/15 06:28:45;;;;;;;;;;;;;;;15.91;74.62;100565.28;4976093;28;20615;-82
2023/05/15 06:31:11;;;;;;;;;;;;;;;15.90;73.60;100558.25;4947341;28;20357;-82
2023/05/15 06:33:42;;;;;;;;;;;;;;;15.96;73.53;100560.22;4946722;28;19929;-82
2023/05/15 06:36:09;;;;;;;;;;;;;;;15.74;72.60;100516.31;4987930;28;19932;-81
2023/05/15 06:38:35;;;;;;;;;;;;;;;16.09;74.25;100545.47;4969219;28;19929;-83
2023/05/15 06:41:02;;;;;;;;;;;;;;;16.14;73.81;100543.09;4987727;28;20312;-82
2023/05/15 06:43:31;;;;;;;;;;;;;;;16.16;72.14;100552.63;4972727;28;19928;-81
2023/05/15 06:45:58;;;;;;;;;;;;;;;16.21;72.38;100558.31;4952117;28;19969;-81
2023/05/15 06:48:26;;;;;;;;;;;;;;;15.96;71.91;100517.41;4950676;28;19930;-82
2023/05/15 06:50:58;;;;;;;;;;;;;;;16.18;72.10;100563.16;4956825;28;19933;-81
2023/05/15 06:53:25;;;;;;;;;;;;;;;16.12;73.82;100572.75;4957897;28;20356;-83
2023/05/15 06:55:52;;;;;;;;;;;;;;;16.18;72.37;100573.88;4972292;28;19922;-80
2023/05/15 06:58:18;;;;;;;;;;;;;;;16.26;72.77;100573.84;4964749;28;19930;-83
2023/05/15 07:00:48;;;;;;;;;;;;;;;16.36;71.57;100577.16;4950556;28;19957;-83
2023/05/15 07:03:15;;;;;;;;;;;;;;;16.39;71.09;100584.00;4960024;28;20073;-82
2023/05/15 07:05:42;;;;;;;;;;;;;;;16.43;72.63;100583.50;4951700;28;19922;-82
2023/05/15 07:08:09;;;;;;;;;;;;;;;16.51;72.51;100589.81;4950792;28;20138;-82
2023/05/15 07:10:35;;;;;;;;;;;;;;;16.61;72.21;100598.47;4949610;28;20292;-81
2023/05/15 07:13:02;;;;;;;;;;;;;;;16.64;70.44;100593.56;4970626;28;19993;-82
2023/05/15 07:15:29;;;;;;;;;;;;;;;16.73;69.93;100602.41;4981023;28;19930;-82
2023/05/15 07:17:55;;;;;;;;;;;;;;;16.68;69.38;100604.81;4950605;28;19925;-83
2023/05/15 07:20:33;;;;;;;;;;;;;;;16.69;69.46;100601.09;4948563;28;20368;-81
2023/05/15 07:23:00;;;;;;;;;;;;;;;16.76;68.70;100603.91;4951108;28;19926;-81
2023/05/15 07:25:27;;;;;;;;;;;;;;;16.78;68.58;100593.84;4938290;28;19926;-81
2023/05/15 07:27:54;;;;;;;;;;;;;;;16.83;68.96;100596.88;4960227;28;19922;-81
2023/05/15 07:30:21;;;;;;;;;;;;;;;16.83;69.43;100591.50;4953505;28;19925;-81
2023/05/15 07:32:48;;;;;;;;;;;;;;;16.91;70.80;100588.75;4960831;28;20395;-83
2023/05/15 07:35:15;;;;;;;;;;;;;;;16.96;73.02;100572.13;4971066;28;19933;-83
2023/05/15 07:37:42;;;;;;;;;;;;;;;16.96;72.75;100562.22;4986368;28;19977;-82
2023/05/15 07:40:09;;;;;;;;;;;;;;;17.00;72.87;100543.97;4952370;28;20379;-83
2023/05/15 07:42:36;;;;;;;;;;;;;;;16.99;72.27;100537.75;4983520;28;19922;-82
2023/05/15 07:45:03;;;;;;;;;;;;;;;17.01;71.84;100535.72;4982663;28;19929;-80
2023/05/15 07:47:37;;;;;;;;;;;;;;;17.02;72.02;100542.75;4956476;28;20188;-84
2023/05/15 07:50:07;;;;;;;;;;;;;;;17.04;71.08;100553.31;4955651;28;20395;-81
2023/05/15 07:52:52;;;;;;;;;;;;;;;17.07;70.25;100552.94;4935723;28;20020;-81
2023/05/15 07:55:21;;;;;;;;;;;;;;;17.05;71.66;100550.44;4942264;28;19930;-82
2023/05/15 07:57:53;;;;;;;;;;;;;;;17.09;70.67;100553.59;4942249;28;20507;-82
2023/05/15 08:00:35;;;;;;;;;;;;;;;17.12;70.14;100553.25;4929324;28;19922;-82
2023/05/15 08:03:02;;;;;;;;;;;;;;;17.19;70.80;100546.13;4956821;28;19957;-83
2023/05/15 08:05:29;;;;;;;;;;;;;;;17.11;70.36;100487.19;4924096;28;20336;-83
2023/05/15 08:07:55;;;;;;;;;;;;;;;17.38;69.98;100542.13;4943457;28;19925;-81
2023/05/15 08:10:23;;;;;;;;;;;;;;;17.45;70.41;100542.19;4948520;28;19933;-85
2023/05/15 08:12:52;;;;;;;;;;;;;;;17.56;69.80;100541.75;4952586;28;19929;-83
2023/05/15 08:15:19;;;;;;;;;;;;;;;17.61;69.53;100542.03;4964458;28;19952;-80
2023/05/15 08:17:46;;;;;;;;;;;;;;;17.65;69.80;100546.03;4982103;28;19937;-84
2023/05/15 08:20:13;;;;;;;;;;;;;;;17.70;68.79;100562.41;4962018;28;20013;-81
2023/05/15 08:22:39;;;;;;;;;;;;;;;17.79;69.06;100554.28;4956534;28;19988;-81
2023/05/15 08:25:07;;;;;;;;;;;;;;;18.07;68.95;100566.06;4960377;28;20013;-81
2023/05/15 08:27:34;;;;;;;;;;;;;;;18.12;66.51;100579.75;4942910;28;20410;-83
2023/05/15 08:30:01;;;;;;;;;;;;;;;18.04;66.24;100577.19;4938448;28;20136;-81
2023/05/15 08:32:28;;;;;;;;;;;;;;;18.17;67.36;100584.59;4950698;28;20091;-83
2023/05/15 08:34:56;;;;;;;;;;;;;;;18.11;65.36;100596.91;4925728;28;20217;-82
2023/05/15 08:37:23;;;;;;;;;;;;;;;18.02;64.93;100591.81;4956257;28;20573;-83
2023/05/15 08:39:50;;;;;;;;;;;;;;;18.10;64.13;100589.03;4911252;28;19934;-83
2023/05/15 08:42:20;;;;;;;;;;;;;;;18.31;65.41;100596.34;4926921;28;19934;-83
2023/05/15 08:44:47;;;;;;;;;;;;;;;17.77;64.94;100513.34;4964569;28;19992;-80
2023/05/15 08:47:18;;;;;;;;;;;;;;;18.44;65.37;100601.88;4976078;28;20243;-83
2023/05/15 08:49:51;;;;;;;;;;;;;;;18.67;63.63;100607.13;4958795;28;20013;-81
2023/05/15 08:52:18;;;;;;;;;;;;;;;18.61;63.61;100590.91;4932977;28;19926;-83
2023/05/15 08:54:46;;;;;;;;;;;;;;;18.79;62.21;100588.69;4941583;28;20343;-84
2023/05/15 08:57:15;;;;;;;;;;;;;;;18.99;61.68;100583.50;4926254;28;19992;-84
2023/05/15 08:59:42;;;;;;;;;;;;;;;19.05;61.43;100571.13;4941399;28;19937;-83
2023/05/15 09:02:09;;;;;;;;;;;;;;;18.99;59.89;100568.19;4963944;28;20326;-84
2023/05/15 09:04:40;;;;;;;;;;;;;;;18.87;60.53;100521.31;4930565;28;20690;-83
2023/05/15 09:07:14;;;;;;;;;;;;;;;19.15;59.99;100563.56;4958253;28;20348;-83
2023/05/15 09:09:45;;;;;;;;;;;;;;;18.74;59.84;100510.41;4954967;28;19926;-84
2023/05/15 09:12:15;;;;;;;;;;;;;;;19.06;60.74;100553.97;4941602;28;20337;-83
2023/05/15 09:14:42;;;;;;;;;;;;;;;19.18;60.74;100549.72;4963721;28;19930;-84
2023/05/15 09:17:15;;;;;;;;;;;;;;;19.34;60.42;100552.13;4950593;28;20348;-83
2023/05/15 09:19:46;;;;;;;;;;;;;;;19.39;59.93;100551.53;4955075;28;19921;-84
2023/05/15 09:22:23;;;;;;;;;;;;;;;19.18;58.92;100520.13;4946533;28;20196;-82
2023/05/15 09:24:51;;;;;;;;;;;;;;;19.35;58.83;100539.50;4948945;28;19972;-81
2023/05/15 09:27:19;;;;;;;;;;;;;;;19.43;59.95;100539.34;4951496;28;20284;-81
2023/05/15 09:29:46;;;;;;;;;;;;;;;19.55;59.45;100535.09;4943450;28;19921;-81
2023/05/15 09:32:15;;;;;;;;;;;;;;;19.27;57.18;100489.34;4952697;28;19956;-81
2023/05/15 09:34:43;;;;;;;;;;;;;;;19.53;58.07;100542.53;4952144;28;20380;-79
2023/05/15 09:37:12;;;;;;;;;;;;;;;19.30;57.79;100536.59;4933194;28;19921;-82
2023/05/15 09:39:42;;;;;;;;;;;;;;;19.27;59.17;100548.53;4950725;28;20019;-82
2023/05/15 09:42:12;;;;;;;;;;;;;;;19.10;59.12;100539.94;4943619;28;19929;-82
2023/05/15 09:44:40;;;;;;;;;;;;;;;19.02;58.87;100523.09;4951788;28;19932;-82
2023/05/15 09:47:12;;;;;;;;;;;;;;;18.80;59.78;100482.75;4951605;28;20391;-83
2023/05/15 09:49:48;;;;;;;;;;;;;;;19.04;59.87;100521.03;4971820;28;19980;-83
2023/05/15 09:52:15;;;;;;;;;;;;;;;19.09;58.91;100513.22;4934617;28;20292;-82
2023/05/15 09:54:44;;;;;;;;;;;;;;;19.23;58.09;100504.22;4938377;28;19964;-83
2023/05/15 09:57:13;;;;;;;;;;;;;;;19.49;56.21;100502.72;4945043;28;19929;-82
2023/05/15 09:59:44;;;;;;;;;;;;;;;19.68;56.72;100502.06;4968725;28;19925;-80
2023/05/15 10:02:23;;;;;;;;;;;;;;;19.91;56.43;100506.34;4950356;28;19933;-82
2023/05/15 10:04:56;;;;;;;;;;;;;;;20.23;56.25;100507.50;4953455;28;20118;-83
2023/05/15 10:07:28;;;;;;;;;;;;;;;20.61;54.49;100507.03;4953595;28;19926;-82
2023/05/15 10:09:55;;;;;;;;;;;;;;;20.63;54.14;100508.47;4943432;28;19922;-81
2023/05/15 10:12:24;;;;;;;;;;;;;;;20.78;53.16;100513.69;4929597;28;19929;-80
2023/05/15 10:14:51;;;;;;;;;;;;;;;20.83;52.78;100510.38;4931868;28;19922;-82
2023/05/15 10:17:18;;;;;;;;;;;;;;;21.01;52.19;100517.84;4950356;28;19930;-84
2023/05/15 10:19:47;;;;;;;;;;;;;;;21.33;51.11;100521.56;4956441;28;19932;-83
2023/05/15 10:22:25;;;;;;;;;;;;;;;21.58;50.31;100529.91;4946055;28;19925;-83
2023/05/15 10:24:58;;;;;;;;;;;;;;;21.49;50.06;100537.38;4963379;28;19921;-82
2023/05/15 10:27:26;;;;;;;;;;;;;;;21.35;50.88;100549.19;4961022;28;19964;-83
2023/05/15 10:29:53;;;;;;;;;;;;;;;21.35;51.71;100535.69;4933738;28;19972;-80
2023/05/15 10:32:20;;;;;;;;;;;;;;;21.35;52.53;100524.91;4947838;28;20232;-82
2023/05/15 10:34:50;;;;;;;;;;;;;;;21.41;52.62;100507.91;4952075;28;20300;-83
2023/05/15 10:37:17;;;;;;;;;;;;;;;21.26;52.75;100500.00;4936360;28;19928;-82
2023/05/15 10:39:44;;;;;;;;;;;;;;;21.21;51.77;100507.03;4935923;28;20371;-82
2023/05/15 10:42:11;;;;;;;;;;;;;;;21.24;51.49;100512.00;4954907;28;20071;-82
2023/05/15 10:44:38;;;;;;;;;;;;;;;21.18;52.74;100515.56;4967221;28;19927;-79
2023/05/15 10:47:05;;;;;;;;;;;;;;;21.17;53.46;100522.00;4954804;28;19981;-80
2023/05/15 10:49:31;;;;;;;;;;;;;;;21.39;53.29;100504.56;4941413;28;19925;-81
2023/05/15 10:51:59;;;;;;;;;;;;;;;21.66;51.25;100501.81;4936731;28;19922;-80
2023/05/15 10:54:26;;;;;;;;;;;;;;;21.89;50.69;100504.03;4932387;28;20405;-81
2023/05/15 10:56:54;;;;;;;;;;;;;;;22.12;49.65;100500.84;4921663;28;19976;-81
2023/05/15 10:59:29;;;;;;;;;;;;;;;22.29;49.92;100498.50;4930714;28;19925;-80
2023/05/15 11:01:56;;;;;;;;;;;;;;;22.36;48.74;100492.00;4960705;28;20424;-80
2023/05/15 11:04:22;;;;;;;;;;;;;;;22.54;48.75;100498.56;4950839;28;20024;-81
2023/05/15 11:06:49;;;;;;;;;;;;;;;22.85;47.27;100486.06;4974010;28;19926;-80
2023/05/15 11:09:23;;;;;;;;;;;;;;;22.77;48.18;100436.56;4931518;28;19930;-82
2023/05/15 11:12:00;;;;;;;;;;;;;;;23.28;48.27;100475.31;4944714;28;19937;-81
2023/05/15 11:14:31;;;;;;;;;;;;;;;23.24;48.65;100485.75;4947486;28;19922;-81
2023/05/15 11:17:02;;;;;;;;;;;;;;;22.96;48.83;100498.88;4957914;28;20319;-81
2023/05/15 11:19:35;;;;;;;;;;;;;;;22.97;47.86;100484.31;4964920;28;20245;-81
2023/05/15 11:22:14;;;;;;;;;;;;;;;23.09;48.14;100487.97;4966190;28;19941;-81
2023/05/15 11:24:49;;;;;;;;;;;;;;;23.22;48.26;100487.84;4951929;28;20351;-82
2023/05/15 11:27:25;;;;;;;;;;;;;;;23.22;47.76;100487.84;4966873;28;19921;-81
2023/05/15 11:30:06;;;;;;;;;;;;;;;23.46;48.00;100485.31;4923463;28;20366;-81
2023/05/15 11:32:43;;;;;;;;;;;;;;;23.71;46.98;100489.84;4916164;28;20037;-80
2023/05/15 11:35:16;;;;;;;;;;;;;;;23.67;46.53;100494.91;4943098;28;19946;-80
2023/05/15 11:38:03;;;;;;;;;;;;;;;23.69;46.87;100492.81;4911612;28;19926;-80
2023/05/15 11:40:43;;;;;;;;;;;;;;;23.50;47.49;100437.78;4929688;28;20086;-81
2023/05/15 11:43:19;;;;;;;;;;;;;;;24.21;46.35;100474.25;4940056;28;19948;-81
2023/05/15 11:46:06;;;;;;;;;;;;;;;24.31;45.75;100479.13;4960406;28;19921;-82
2023/05/15 11:48:36;;;;;;;;;;;;;;;24.39;44.15;100427.25;4963555;28;20021;-82
2023/05/15 11:51:04;;;;;;;;;;;;;;;24.81;43.73;100478.84;4935770;28;19930;-79
2023/05/15 11:53:34;;;;;;;;;;;;;;;24.90;43.61;100477.44;4943228;28;19921;-82
2023/05/15 11:56:01;;;;;;;;;;;;;;;25.09;43.64;100467.28;4936234;28;20121;-80
2023/05/15 11:58:27;;;;;;;;;;;;;;;25.14;44.28;100469.28;4930734;28;19961;-81
2023/05/15 12:00:56;;;;;;;;;;;;;;;25.20;44.08;100452.09;4945254;28;20166;-81
2023/05/15 12:03:24;;;;;;;;;;;;;;;25.57;42.95;100457.25;4937005;28;19940;-81
2023/05/15 12:05:54;;;;;;;;;;;;;;;25.31;42.80;100456.66;4952899;28;19922;-83
2023/05/15 12:08:29;;;;;;;;;;;;;;;25.01;43.11;100445.91;4938938;28;19926;-84
2023/05/15 12:10:57;;;;;;;;;;;;;;;25.20;43.81;100453.97;4941426;28;19921;-83
2023/05/15 12:13:24;;;;;;;;;;;;;;;25.33;43.04;100449.09;4958501;28;20016;-81
2023/05/15 12:15:50;;;;;;;;;;;;;;;25.56;42.05;100448.25;4956248;28;20353;-84
2023/05/15 12:18:23;;;;;;;;;;;;;;;25.59;41.79;100453.22;4936459;28;19948;-81
2023/05/15 12:20:53;;;;;;;;;;;;;;;25.80;41.51;100450.91;4930262;28;20012;-81
2023/05/15 12:23:21;;;;;;;;;;;;;;;26.17;41.21;100447.88;4949488;28;19921;-82
2023/05/15 12:25:57;;;;;;;;;;;;;;;25.65;40.91;100407.94;4951699;28;19922;-82
2023/05/15 12:28:34;;;;;;;;;;;;;;;25.66;41.46;100455.81;4945735;28;20091;-82
2023/05/15 12:31:01;;;;;;;;;;;;;;;25.77;41.15;100460.38;4950719;28;19922;-83
2023/05/15 12:33:29;;;;;;;;;;;;;;;25.71;40.93;100428.72;4904309;28;20539;-83
2023/05/15 12:36:07;;;;;;;;;;;;;;;26.15;40.11;100459.00;4910983;28;20023;-85
2023/05/15 12:38:35;;;;;;;;;;;;;;;26.34;39.96;100447.91;4909820;28;20024;-81
2023/05/15 12:41:01;;;;;;;;;;;;;;;26.43;39.05;100450.00;4935458;28;19922;-82
2023/05/15 12:43:29;;;;;;;;;;;;;;;26.61;40.40;100438.06;4944949;28;20297;-84
2023/05/15 12:45:57;;;;;;;;;;;;;;;26.50;38.83;100429.94;4976168;28;20347;-81